sensor_id;sensor_type;location;lat;lon;timestamp;P1;durP1;ratioP1;P2;durP2;ratioP2
64339;SDS011;63709;53.258;-8.814;2023-05-10T00:04:08;20.58;;;3.20;;
64339;SDS011;63709;53.258;-8.814;2023-05-10T00:06:35;30.13;;;3.50;;
64339;SDS011;63709;53.258;-8.814;2023-05-10T00:09:02;28.05;;;3.88;;
64339;SDS011;63709;53.258;-8.814;2023-05-10T00:11:29;24.85;;;3.33;;
64339;SDS011;63709;53.258;-8.814;2023-05-10T00:16:38;27.65;;;4.88;;
64339;SDS011;63709;53.258;-8.814;2023-05-10T00:19:05;31.40;;;4.55;;
64339;SDS011;63709;53.258;-8.814;2023-05-10T00:21:46;29.17;;;4.20;;
64339;SDS011;63709;53.258;-8.814;2023-05-10T00:24:21;26.00;;;3.65;;
64339;SDS011;63709;53.258;-8.814;2023-05-10T00:29:22;28.92;;;4.22;;
64339;SDS011;63709;53.258;-8.814;2023-05-10T00:31:54;24.95;;;4.55;;
64339;SDS011;63709;53.258;-8.814;2023-05-10T00:34:20;18.63;;;2.90;;
64339;SDS011;63709;53.258;-8.814;2023-05-10T00:36:46;12.90;;;2.50;;
64339;SDS011;63709;53.258;-8.814;2023-05-10T00:39:14;20.88;;;3.33;;
64339;SDS011;63709;53.258;-8.814;2023-05-10T00:41:41;22.17;;;3.10;;
64339;SDS011;63709;53.258;-8.814;2023-05-10T00:46:46;21.75;;;3.35;;
64339;SDS011;63709;53.258;-8.814;2023-05-10T00:49:17;27.50;;;4.40;;
64339;SDS011;63709;53.258;-8.814;2023-05-10T00:51:44;32.35;;;3.83;;
64339;SDS011;63709;53.258;-8.814;2023-05-10T00:54:22;29.63;;;4.75;;
64339;SDS011;63709;53.258;-8.814;2023-05-10T00:59:21;33.03;;;4.38;;
64339;SDS011;63709;53.258;-8.814;2023-05-10T01:01:46;31.42;;;4.28;;
64339;SDS011;63709;53.258;-8.814;2023-05-10T01:04:13;24.73;;;3.72;;
64339;SDS011;63709;53.258;-8.814;2023-05-10T01:09:15;22.88;;;3.42;;
64339;SDS011;63709;53.258;-8.814;2023-05-10T01:11:41;20.45;;;3.67;;
64339;SDS011;63709;53.258;-8.814;2023-05-10T01:14:12;26.02;;;3.63;;
64339;SDS011;63709;53.258;-8.814;2023-05-10T01:16:44;33.25;;;4.75;;
64339;SDS011;63709;53.258;-8.814;2023-05-10T01:22:03;32.30;;;4.45;;
64339;SDS011;63709;53.258;-8.814;2023-05-10T01:24:54;26.60;;;4.07;;
64339;SDS011;63709;53.258;-8.814;2023-05-10T01:33:55;20.52;;;3.15;;
64339;SDS011;63709;53.258;-8.814;2023-05-10T01:39:10;19.85;;;2.40;;
64339;SDS011;63709;53.258;-8.814;2023-05-10T01:45:02;17.52;;;2.25;;
64339;SDS011;63709;53.258;-8.814;2023-05-10T01:50:39;36.50;;;4.97;;
64339;SDS011;63709;53.258;-8.814;2023-05-10T01:53:09;38.17;;;4.95;;
64339;SDS011;63709;53.258;-8.814;2023-05-10T01:55:55;29.73;;;3.53;;
64339;SDS011;63709;53.258;-8.814;2023-05-10T01:58:27;24.38;;;3.08;;
64339;SDS011;63709;53.258;-8.814;2023-05-10T02:01:01;20.98;;;2.92;;
64339;SDS011;63709;53.258;-8.814;2023-05-10T02:03:35;16.35;;;2.63;;
64339;SDS011;63709;53.258;-8.814;2023-05-10T02:06:10;18.67;;;3.10;;
64339;SDS011;63709;53.258;-8.814;2023-05-10T02:08:39;18.80;;;2.88;;
64339;SDS011;63709;53.258;-8.814;2023-05-10T02:11:06;23.73;;;3.88;;
64339;SDS011;63709;53.258;-8.814;2023-05-10T02:13:35;30.13;;;3.90;;
64339;SDS011;63709;53.258;-8.814;2023-05-10T02:16:04;22.17;;;2.75;;
64339;SDS011;63709;53.258;-8.814;2023-05-10T02:21:06;27.63;;;3.55;;
64339;SDS011;63709;53.258;-8.814;2023-05-10T02:23:33;14.57;;;2.75;;
64339;SDS011;63709;53.258;-8.814;2023-05-10T02:26:00;22.00;;;2.67;;
64339;SDS011;63709;53.258;-8.814;2023-05-10T02:28:29;21.73;;;3.28;;
64339;SDS011;63709;53.258;-8.814;2023-05-10T02:31:03;18.98;;;3.13;;
64339;SDS011;63709;53.258;-8.814;2023-05-10T02:33:30;20.25;;;2.70;;
64339;SDS011;63709;53.258;-8.814;2023-05-10T02:35:58;19.15;;;3.00;;
64339;SDS011;63709;53.258;-8.814;2023-05-10T02:38:30;25.25;;;3.53;;
64339;SDS011;63709;53.258;-8.814;2023-05-10T02:40:57;19.15;;;3.20;;
64339;SDS011;63709;53.258;-8.814;2023-05-10T02:43:24;21.70;;;3.15;;
64339;SDS011;63709;53.258;-8.814;2023-05-10T02:45:51;25.83;;;3.70;;
64339;SDS011;63709;53.258;-8.814;2023-05-10T02:50:46;26.00;;;4.05;;
64339;SDS011;63709;53.258;-8.814;2023-05-10T02:53:30;23.90;;;3.45;;
64339;SDS011;63709;53.258;-8.814;2023-05-10T02:55:59;26.20;;;2.53;;
64339;SDS011;63709;53.258;-8.814;2023-05-10T02:58:30;19.33;;;2.38;;
64339;SDS011;63709;53.258;-8.814;2023-05-10T03:00:56;16.77;;;2.28;;
64339;SDS011;63709;53.258;-8.814;2023-05-10T03:03:29;14.35;;;2.20;;
64339;SDS011;63709;53.258;-8.814;2023-05-10T03:08:23;17.23;;;3.15;;
64339;SDS011;63709;53.258;-8.814;2023-05-10T03:14:02;24.95;;;3.28;;
64339;SDS011;63709;53.258;-8.814;2023-05-10T03:17:04;19.20;;;3.35;;
64339;SDS011;63709;53.258;-8.814;2023-05-10T03:19:32;25.02;;;3.42;;
64339;SDS011;63709;53.258;-8.814;2023-05-10T03:22:10;32.15;;;3.95;;
64339;SDS011;63709;53.258;-8.814;2023-05-10T03:24:39;25.65;;;4.15;;
64339;SDS011;63709;53.258;-8.814;2023-05-10T03:27:10;29.60;;;3.83;;
64339;SDS011;63709;53.258;-8.814;2023-05-10T03:29:37;25.73;;;3.70;;
64339;SDS011;63709;53.258;-8.814;2023-05-10T03:32:04;22.92;;;2.78;;
64339;SDS011;63709;53.258;-8.814;2023-05-10T03:34:30;18.50;;;3.10;;
64339;SDS011;63709;53.258;-8.814;2023-05-10T03:36:56;22.50;;;2.85;;
64339;SDS011;63709;53.258;-8.814;2023-05-10T03:39:21;23.60;;;2.70;;
64339;SDS011;63709;53.258;-8.814;2023-05-10T03:41:50;21.25;;;3.10;;
64339;SDS011;63709;53.258;-8.814;2023-05-10T03:44:23;20.50;;;3.92;;
64339;SDS011;63709;53.258;-8.814;2023-05-10T03:46:49;26.50;;;2.97;;
64339;SDS011;63709;53.258;-8.814;2023-05-10T03:49:16;23.20;;;3.42;;
64339;SDS011;63709;53.258;-8.814;2023-05-10T03:51:53;21.17;;;3.42;;
64339;SDS011;63709;53.258;-8.814;2023-05-10T03:54:18;30.88;;;4.30;;
64339;SDS011;63709;53.258;-8.814;2023-05-10T03:56:44;21.10;;;3.72;;
64339;SDS011;63709;53.258;-8.814;2023-05-10T03:59:12;24.58;;;3.25;;
64339;SDS011;63709;53.258;-8.814;2023-05-10T04:01:49;19.60;;;3.13;;
64339;SDS011;63709;53.258;-8.814;2023-05-10T04:04:15;15.75;;;2.42;;
64339;SDS011;63709;53.258;-8.814;2023-05-10T04:06:48;20.38;;;3.30;;
64339;SDS011;63709;53.258;-8.814;2023-05-10T04:09:20;16.50;;;3.08;;
64339;SDS011;63709;53.258;-8.814;2023-05-10T04:11:47;34.80;;;4.03;;
64339;SDS011;63709;53.258;-8.814;2023-05-10T04:19:10;24.10;;;3.30;;
64339;SDS011;63709;53.258;-8.814;2023-05-10T04:21:38;13.77;;;2.35;;
64339;SDS011;63709;53.258;-8.814;2023-05-10T04:24:05;22.65;;;4.30;;
64339;SDS011;63709;53.258;-8.814;2023-05-10T04:26:31;22.25;;;3.15;;
64339;SDS011;63709;53.258;-8.814;2023-05-10T04:28:58;25.30;;;3.47;;
64339;SDS011;63709;53.258;-8.814;2023-05-10T04:34:07;30.90;;;5.18;;
64339;SDS011;63709;53.258;-8.814;2023-05-10T04:36:35;28.63;;;4.57;;
64339;SDS011;63709;53.258;-8.814;2023-05-10T04:39:02;21.88;;;3.65;;
64339;SDS011;63709;53.258;-8.814;2023-05-10T04:41:29;21.80;;;3.40;;
64339;SDS011;63709;53.258;-8.814;2023-05-10T04:46:35;31.10;;;3.88;;
64339;SDS011;63709;53.258;-8.814;2023-05-10T04:51:31;27.75;;;4.05;;
64339;SDS011;63709;53.258;-8.814;2023-05-10T04:57:15;31.48;;;3.85;;
64339;SDS011;63709;53.258;-8.814;2023-05-10T04:59:43;31.77;;;3.90;;
64339;SDS011;63709;53.258;-8.814;2023-05-10T05:02:11;25.48;;;3.45;;
64339;SDS011;63709;53.258;-8.814;2023-05-10T05:04:39;27.20;;;3.65;;
64339;SDS011;63709;53.258;-8.814;2023-05-10T05:10:26;17.88;;;2.70;;
64339;SDS011;63709;53.258;-8.814;2023-05-10T05:19:09;23.95;;;3.30;;
64339;SDS011;63709;53.258;-8.814;2023-05-10T05:24:08;25.85;;;3.38;;
64339;SDS011;63709;53.258;-8.814;2023-05-10T05:26:35;23.27;;;3.90;;
64339;SDS011;63709;53.258;-8.814;2023-05-10T05:29:02;31.52;;;3.88;;
64339;SDS011;63709;53.258;-8.814;2023-05-10T05:34:33;18.75;;;3.80;;
64339;SDS011;63709;53.258;-8.814;2023-05-10T05:43:13;36.25;;;4.07;;
64339;SDS011;63709;53.258;-8.814;2023-05-10T05:48:31;24.30;;;3.28;;
64339;SDS011;63709;53.258;-8.814;2023-05-10T05:50:56;15.15;;;2.17;;
64339;SDS011;63709;53.258;-8.814;2023-05-10T05:56:50;13.95;;;2.17;;
64339;SDS011;63709;53.258;-8.814;2023-05-10T05:59:35;13.52;;;2.35;;
64339;SDS011;63709;53.258;-8.814;2023-05-10T06:11:22;11.73;;;2.38;;
64339;SDS011;63709;53.258;-8.814;2023-05-10T06:17:10;14.63;;;2.67;;
64339;SDS011;63709;53.258;-8.814;2023-05-10T06:35:17;17.67;;;2.83;;
64339;SDS011;63709;53.258;-8.814;2023-05-10T06:40:51;20.42;;;2.90;;
64339;SDS011;63709;53.258;-8.814;2023-05-10T06:56:06;31.88;;;3.38;;
64339;SDS011;63709;53.258;-8.814;2023-05-10T07:01:53;14.63;;;3.03;;
64339;SDS011;63709;53.258;-8.814;2023-05-10T07:07:40;15.82;;;2.65;;
64339;SDS011;63709;53.258;-8.814;2023-05-10T07:13:28;11.77;;;2.10;;
64339;SDS011;63709;53.258;-8.814;2023-05-10T07:19:16;10.90;;;2.58;;
64339;SDS011;63709;53.258;-8.814;2023-05-10T07:21:52;16.05;;;2.50;;
64339;SDS011;63709;53.258;-8.814;2023-05-10T07:32:23;17.42;;;2.58;;
64339;SDS011;63709;53.258;-8.814;2023-05-10T07:40:19;16.45;;;2.33;;
64339;SDS011;63709;53.258;-8.814;2023-05-10T07:45:50;21.67;;;2.35;;
64339;SDS011;63709;53.258;-8.814;2023-05-10T07:48:16;14.32;;;2.28;;
64339;SDS011;63709;53.258;-8.814;2023-05-10T07:50:49;15.98;;;2.38;;
64339;SDS011;63709;53.258;-8.814;2023-05-10T08:02:01;19.23;;;2.97;;
64339;SDS011;63709;53.258;-8.814;2023-05-10T08:04:32;22.25;;;3.03;;
64339;SDS011;63709;53.258;-8.814;2023-05-10T08:12:29;15.95;;;2.63;;
64339;SDS011;63709;53.258;-8.814;2023-05-10T08:18:10;25.88;;;2.85;;
64339;SDS011;63709;53.258;-8.814;2023-05-10T08:20:45;21.50;;;2.95;;
64339;SDS011;63709;53.258;-8.814;2023-05-10T08:26:05;19.88;;;2.80;;
64339;SDS011;63709;53.258;-8.814;2023-05-10T08:28:36;17.83;;;2.72;;
64339;SDS011;63709;53.258;-8.814;2023-05-10T08:31:02;10.93;;;2.90;;
64339;SDS011;63709;53.258;-8.814;2023-05-10T08:33:35;10.55;;;2.78;;
64339;SDS011;63709;53.258;-8.814;2023-05-10T08:36:03;14.75;;;2.28;;
64339;SDS011;63709;53.258;-8.814;2023-05-10T08:38:32;10.77;;;2.08;;
64339;SDS011;63709;53.258;-8.814;2023-05-10T08:40:57;15.57;;;3.40;;
64339;SDS011;63709;53.258;-8.814;2023-05-10T08:46:00;17.98;;;2.97;;
64339;SDS011;63709;53.258;-8.814;2023-05-10T08:48:30;21.38;;;2.70;;
64339;SDS011;63709;53.258;-8.814;2023-05-10T08:51:00;15.70;;;2.42;;
64339;SDS011;63709;53.258;-8.814;2023-05-10T08:53:31;14.88;;;2.85;;
64339;SDS011;63709;53.258;-8.814;2023-05-10T08:56:06;14.20;;;2.25;;
64339;SDS011;63709;53.258;-8.814;2023-05-10T08:58:34;12.88;;;2.35;;
64339;SDS011;63709;53.258;-8.814;2023-05-10T09:07:07;9.38;;;1.70;;
64339;SDS011;63709;53.258;-8.814;2023-05-10T09:09:34;19.17;;;2.42;;
64339;SDS011;63709;53.258;-8.814;2023-05-10T09:12:10;15.13;;;2.97;;
64339;SDS011;63709;53.258;-8.814;2023-05-10T09:17:29;21.38;;;2.95;;
64339;SDS011;63709;53.258;-8.814;2023-05-10T09:20:04;14.65;;;2.10;;
64339;SDS011;63709;53.258;-8.814;2023-05-10T09:22:33;13.02;;;2.28;;
64339;SDS011;63709;53.258;-8.814;2023-05-10T09:25:10;14.93;;;2.53;;
64339;SDS011;63709;53.258;-8.814;2023-05-10T09:27:47;19.60;;;2.42;;
64339;SDS011;63709;53.258;-8.814;2023-05-10T09:33:16;19.95;;;2.50;;
64339;SDS011;63709;53.258;-8.814;2023-05-10T09:41:24;16.13;;;2.60;;
64339;SDS011;63709;53.258;-8.814;2023-05-10T09:44:03;16.02;;;2.35;;
64339;SDS011;63709;53.258;-8.814;2023-05-10T09:46:42;17.88;;;2.53;;
64339;SDS011;63709;53.258;-8.814;2023-05-10T09:51:46;11.05;;;2.22;;
64339;SDS011;63709;53.258;-8.814;2023-05-10T09:54:19;15.20;;;2.40;;
64339;SDS011;63709;53.258;-8.814;2023-05-10T09:56:52;19.58;;;2.45;;
64339;SDS011;63709;53.258;-8.814;2023-05-10T09:59:26;17.02;;;3.22;;
64339;SDS011;63709;53.258;-8.814;2023-05-10T10:02:07;16.20;;;3.10;;
64339;SDS011;63709;53.258;-8.814;2023-05-10T10:07:43;18.17;;;3.10;;
64339;SDS011;63709;53.258;-8.814;2023-05-10T10:13:03;13.32;;;2.05;;
64339;SDS011;63709;53.258;-8.814;2023-05-10T10:15:38;19.83;;;2.70;;
64339;SDS011;63709;53.258;-8.814;2023-05-10T10:18:15;16.20;;;2.70;;
64339;SDS011;63709;53.258;-8.814;2023-05-10T10:23:17;18.75;;;2.28;;
64339;SDS011;63709;53.258;-8.814;2023-05-10T10:25:47;22.42;;;3.20;;
64339;SDS011;63709;53.258;-8.814;2023-05-10T10:34:11;19.08;;;3.20;;
64339;SDS011;63709;53.258;-8.814;2023-05-10T10:46:20;23.75;;;2.75;;
64339;SDS011;63709;53.258;-8.814;2023-05-10T10:52:12;15.48;;;2.63;;
64339;SDS011;63709;53.258;-8.814;2023-05-10T10:58:01;15.80;;;2.63;;
64339;SDS011;63709;53.258;-8.814;2023-05-10T11:09:30;13.48;;;3.13;;
64339;SDS011;63709;53.258;-8.814;2023-05-10T11:15:33;20.17;;;2.78;;
64339;SDS011;63709;53.258;-8.814;2023-05-10T11:26:30;9.48;;;2.10;;
64339;SDS011;63709;53.258;-8.814;2023-05-10T11:32:18;12.57;;;2.13;;
64339;SDS011;63709;53.258;-8.814;2023-05-10T11:37:47;15.45;;;2.50;;
64339;SDS011;63709;53.258;-8.814;2023-05-10T11:45:37;14.77;;;1.98;;
64339;SDS011;63709;53.258;-8.814;2023-05-10T11:48:11;13.82;;;2.25;;
64339;SDS011;63709;53.258;-8.814;2023-05-10T11:50:37;14.93;;;2.10;;
64339;SDS011;63709;53.258;-8.814;2023-05-10T11:53:03;10.95;;;2.85;;
64339;SDS011;63709;53.258;-8.814;2023-05-10T11:55:35;15.80;;;2.15;;
64339;SDS011;63709;53.258;-8.814;2023-05-10T11:58:01;10.20;;;2.25;;
64339;SDS011;63709;53.258;-8.814;2023-05-10T12:03:00;18.65;;;3.53;;
64339;SDS011;63709;53.258;-8.814;2023-05-10T12:11:20;24.02;;;4.22;;
64339;SDS011;63709;53.258;-8.814;2023-05-10T12:13:51;21.55;;;3.50;;
64339;SDS011;63709;53.258;-8.814;2023-05-10T12:16:34;21.17;;;3.83;;
64339;SDS011;63709;53.258;-8.814;2023-05-10T12:19:09;18.90;;;2.33;;
64339;SDS011;63709;53.258;-8.814;2023-05-10T12:21:46;16.05;;;2.60;;
64339;SDS011;63709;53.258;-8.814;2023-05-10T12:24:12;16.67;;;2.90;;
64339;SDS011;63709;53.258;-8.814;2023-05-10T12:26:45;14.50;;;2.83;;
64339;SDS011;63709;53.258;-8.814;2023-05-10T12:31:55;19.55;;;2.97;;
64339;SDS011;63709;53.258;-8.814;2023-05-10T12:34:23;29.20;;;3.75;;
64339;SDS011;63709;53.258;-8.814;2023-05-10T12:36:56;17.70;;;3.00;;
64339;SDS011;63709;53.258;-8.814;2023-05-10T12:39:23;12.85;;;2.83;;
64339;SDS011;63709;53.258;-8.814;2023-05-10T12:41:54;15.18;;;2.67;;
64339;SDS011;63709;53.258;-8.814;2023-05-10T12:44:21;18.27;;;3.17;;
64339;SDS011;63709;53.258;-8.814;2023-05-10T12:46:48;25.30;;;3.85;;
64339;SDS011;63709;53.258;-8.814;2023-05-10T12:49:24;14.15;;;2.92;;
64339;SDS011;63709;53.258;-8.814;2023-05-10T12:51:51;14.43;;;2.33;;
64339;SDS011;63709;53.258;-8.814;2023-05-10T12:54:19;13.05;;;1.80;;
64339;SDS011;63709;53.258;-8.814;2023-05-10T12:56:44;8.80;;;1.58;;
64339;SDS011;63709;53.258;-8.814;2023-05-10T12:59:10;10.70;;;1.67;;
64339;SDS011;63709;53.258;-8.814;2023-05-10T13:01:35;8.73;;;1.80;;
64339;SDS011;63709;53.258;-8.814;2023-05-10T13:04:02;12.35;;;2.40;;
64339;SDS011;63709;53.258;-8.814;2023-05-10T13:06:27;12.20;;;2.60;;
64339;SDS011;63709;53.258;-8.814;2023-05-10T13:08:55;11.73;;;2.22;;
64339;SDS011;63709;53.258;-8.814;2023-05-10T13:11:28;11.30;;;2.08;;
64339;SDS011;63709;53.258;-8.814;2023-05-10T13:13:54;12.73;;;2.63;;
64339;SDS011;63709;53.258;-8.814;2023-05-10T13:16:30;15.80;;;2.25;;
64339;SDS011;63709;53.258;-8.814;2023-05-10T13:19:02;10.23;;;2.17;;
64339;SDS011;63709;53.258;-8.814;2023-05-10T13:21:31;16.70;;;2.63;;
64339;SDS011;63709;53.258;-8.814;2023-05-10T13:23:56;13.32;;;2.33;;
64339;SDS011;63709;53.258;-8.814;2023-05-10T13:26:22;14.20;;;2.30;;
64339;SDS011;63709;53.258;-8.814;2023-05-10T13:28:47;13.77;;;2.83;;
64339;SDS011;63709;53.258;-8.814;2023-05-10T13:33:39;12.10;;;2.60;;
64339;SDS011;63709;53.258;-8.814;2023-05-10T13:36:10;12.95;;;2.40;;
64339;SDS011;63709;53.258;-8.814;2023-05-10T13:38:50;10.00;;;2.20;;
64339;SDS011;63709;53.258;-8.814;2023-05-10T13:41:20;9.57;;;2.05;;
64339;SDS011;63709;53.258;-8.814;2023-05-10T13:44:03;14.07;;;2.42;;
64339;SDS011;63709;53.258;-8.814;2023-05-10T13:46:40;13.02;;;2.35;;
64339;SDS011;63709;53.258;-8.814;2023-05-10T13:49:08;12.40;;;2.13;;
64339;SDS011;63709;53.258;-8.814;2023-05-10T13:51:35;13.70;;;2.25;;
64339;SDS011;63709;53.258;-8.814;2023-05-10T13:54:09;8.55;;;2.05;;
64339;SDS011;63709;53.258;-8.814;2023-05-10T13:56:37;14.75;;;1.83;;
64339;SDS011;63709;53.258;-8.814;2023-05-10T13:59:04;9.55;;;2.30;;
64339;SDS011;63709;53.258;-8.814;2023-05-10T14:01:29;15.95;;;2.50;;
64339;SDS011;63709;53.258;-8.814;2023-05-10T14:03:55;12.35;;;2.03;;
64339;SDS011;63709;53.258;-8.814;2023-05-10T14:06:20;13.45;;;2.47;;
64339;SDS011;63709;53.258;-8.814;2023-05-10T14:08:46;12.60;;;2.20;;
64339;SDS011;63709;53.258;-8.814;2023-05-10T14:11:12;13.63;;;2.17;;
64339;SDS011;63709;53.258;-8.814;2023-05-10T14:13:37;10.55;;;2.38;;
64339;SDS011;63709;53.258;-8.814;2023-05-10T14:16:03;15.63;;;3.58;;
64339;SDS011;63709;53.258;-8.814;2023-05-10T14:18:29;17.73;;;3.22;;
64339;SDS011;63709;53.258;-8.814;2023-05-10T14:20:54;18.30;;;2.65;;
64339;SDS011;63709;53.258;-8.814;2023-05-10T14:23:21;14.05;;;2.17;;
64339;SDS011;63709;53.258;-8.814;2023-05-10T14:25:49;12.90;;;2.08;;
64339;SDS011;63709;53.258;-8.814;2023-05-10T14:28:16;22.38;;;2.63;;
64339;SDS011;63709;53.258;-8.814;2023-05-10T14:30:42;13.43;;;2.88;;
64339;SDS011;63709;53.258;-8.814;2023-05-10T14:33:08;13.95;;;2.55;;
64339;SDS011;63709;53.258;-8.814;2023-05-10T14:35:33;13.95;;;2.25;;
64339;SDS011;63709;53.258;-8.814;2023-05-10T14:37:59;18.83;;;3.03;;
64339;SDS011;63709;53.258;-8.814;2023-05-10T14:40:24;25.13;;;3.75;;
64339;SDS011;63709;53.258;-8.814;2023-05-10T14:42:50;19.42;;;3.47;;
64339;SDS011;63709;53.258;-8.814;2023-05-10T14:45:17;15.23;;;2.63;;
64339;SDS011;63709;53.258;-8.814;2023-05-10T14:47:44;19.20;;;3.28;;
64339;SDS011;63709;53.258;-8.814;2023-05-10T14:50:09;20.90;;;3.40;;
64339;SDS011;63709;53.258;-8.814;2023-05-10T14:52:35;14.07;;;3.05;;
64339;SDS011;63709;53.258;-8.814;2023-05-10T14:55:07;11.43;;;2.65;;
64339;SDS011;63709;53.258;-8.814;2023-05-10T14:57:33;15.15;;;2.83;;
64339;SDS011;63709;53.258;-8.814;2023-05-10T14:59:58;18.15;;;3.13;;
64339;SDS011;63709;53.258;-8.814;2023-05-10T15:02:23;19.52;;;2.97;;
64339;SDS011;63709;53.258;-8.814;2023-05-10T15:04:52;21.80;;;3.42;;
64339;SDS011;63709;53.258;-8.814;2023-05-10T15:07:30;18.67;;;2.38;;
64339;SDS011;63709;53.258;-8.814;2023-05-10T15:09:58;18.90;;;2.75;;
64339;SDS011;63709;53.258;-8.814;2023-05-10T15:12:24;23.75;;;3.17;;
64339;SDS011;63709;53.258;-8.814;2023-05-10T15:14:49;20.67;;;2.60;;
64339;SDS011;63709;53.258;-8.814;2023-05-10T15:17:14;20.30;;;2.83;;
64339;SDS011;63709;53.258;-8.814;2023-05-10T15:22:14;14.85;;;2.65;;
64339;SDS011;63709;53.258;-8.814;2023-05-10T15:24:41;13.25;;;2.15;;
64339;SDS011;63709;53.258;-8.814;2023-05-10T15:27:22;17.42;;;2.47;;
64339;SDS011;63709;53.258;-8.814;2023-05-10T15:33:10;12.70;;;2.38;;
64339;SDS011;63709;53.258;-8.814;2023-05-10T15:38:06;14.45;;;2.70;;
64339;SDS011;63709;53.258;-8.814;2023-05-10T15:43:03;12.25;;;2.63;;
64339;SDS011;63709;53.258;-8.814;2023-05-10T15:45:32;14.18;;;2.67;;
64339;SDS011;63709;53.258;-8.814;2023-05-10T15:52:55;9.25;;;2.00;;
64339;SDS011;63709;53.258;-8.814;2023-05-10T15:55:39;14.57;;;2.75;;
64339;SDS011;63709;53.258;-8.814;2023-05-10T15:58:09;20.33;;;2.88;;
64339;SDS011;63709;53.258;-8.814;2023-05-10T16:00:44;16.05;;;2.72;;
64339;SDS011;63709;53.258;-8.814;2023-05-10T16:03:17;16.60;;;3.28;;
64339;SDS011;63709;53.258;-8.814;2023-05-10T16:05:46;18.83;;;2.47;;
64339;SDS011;63709;53.258;-8.814;2023-05-10T16:08:11;21.17;;;3.35;;
64339;SDS011;63709;53.258;-8.814;2023-05-10T16:10:38;15.43;;;3.30;;
64339;SDS011;63709;53.258;-8.814;2023-05-10T16:13:16;18.42;;;2.97;;
64339;SDS011;63709;53.258;-8.814;2023-05-10T16:15:56;18.40;;;2.40;;
64339;SDS011;63709;53.258;-8.814;2023-05-10T16:20:52;15.55;;;2.88;;
64339;SDS011;63709;53.258;-8.814;2023-05-10T16:25:50;15.07;;;2.65;;
64339;SDS011;63709;53.258;-8.814;2023-05-10T16:28:16;17.35;;;3.05;;
64339;SDS011;63709;53.258;-8.814;2023-05-10T16:30:47;21.52;;;3.97;;
64339;SDS011;63709;53.258;-8.814;2023-05-10T16:35:42;19.40;;;3.63;;
64339;SDS011;63709;53.258;-8.814;2023-05-10T16:38:07;18.15;;;4.32;;
64339;SDS011;63709;53.258;-8.814;2023-05-10T16:40:33;20.88;;;3.78;;
64339;SDS011;63709;53.258;-8.814;2023-05-10T16:43:00;29.00;;;3.72;;
64339;SDS011;63709;53.258;-8.814;2023-05-10T16:45:26;21.55;;;3.03;;
64339;SDS011;63709;53.258;-8.814;2023-05-10T16:47:54;14.80;;;2.83;;
64339;SDS011;63709;53.258;-8.814;2023-05-10T16:50:20;17.77;;;2.88;;
64339;SDS011;63709;53.258;-8.814;2023-05-10T16:52:45;20.70;;;3.25;;
64339;SDS011;63709;53.258;-8.814;2023-05-10T16:55:11;16.38;;;3.88;;
64339;SDS011;63709;53.258;-8.814;2023-05-10T16:57:36;25.23;;;4.95;;
64339;SDS011;63709;53.258;-8.814;2023-05-10T17:00:02;21.02;;;3.35;;
64339;SDS011;63709;53.258;-8.814;2023-05-10T17:05:07;15.88;;;3.17;;
64339;SDS011;63709;53.258;-8.814;2023-05-10T17:07:33;15.20;;;2.58;;
64339;SDS011;63709;53.258;-8.814;2023-05-10T17:09:59;19.58;;;3.00;;
64339;SDS011;63709;53.258;-8.814;2023-05-10T17:12:24;24.13;;;3.20;;
64339;SDS011;63709;53.258;-8.814;2023-05-10T17:14:50;26.58;;;3.75;;
64339;SDS011;63709;53.258;-8.814;2023-05-10T17:17:15;21.55;;;4.47;;
64339;SDS011;63709;53.258;-8.814;2023-05-10T17:19:43;18.85;;;3.40;;
64339;SDS011;63709;53.258;-8.814;2023-05-10T17:22:09;21.08;;;3.40;;
64339;SDS011;63709;53.258;-8.814;2023-05-10T17:24:36;18.20;;;3.10;;
64339;SDS011;63709;53.258;-8.814;2023-05-10T17:27:02;18.85;;;2.55;;
64339;SDS011;63709;53.258;-8.814;2023-05-10T17:29:28;20.83;;;3.17;;
64339;SDS011;63709;53.258;-8.814;2023-05-10T17:31:57;22.30;;;3.40;;
64339;SDS011;63709;53.258;-8.814;2023-05-10T17:34:23;23.67;;;3.17;;
64339;SDS011;63709;53.258;-8.814;2023-05-10T17:36:50;20.10;;;4.63;;
64339;SDS011;63709;53.258;-8.814;2023-05-10T17:39:15;20.38;;;3.42;;
64339;SDS011;63709;53.258;-8.814;2023-05-10T17:41:41;18.50;;;3.55;;
64339;SDS011;63709;53.258;-8.814;2023-05-10T17:44:06;20.27;;;4.63;;
64339;SDS011;63709;53.258;-8.814;2023-05-10T17:46:32;21.73;;;4.05;;
64339;SDS011;63709;53.258;-8.814;2023-05-10T17:48:57;17.30;;;3.38;;
64339;SDS011;63709;53.258;-8.814;2023-05-10T17:51:23;20.90;;;4.25;;
64339;SDS011;63709;53.258;-8.814;2023-05-10T17:53:48;23.98;;;3.28;;
64339;SDS011;63709;53.258;-8.814;2023-05-10T17:56:13;25.40;;;3.80;;
64339;SDS011;63709;53.258;-8.814;2023-05-10T17:58:39;21.83;;;3.67;;
64339;SDS011;63709;53.258;-8.814;2023-05-10T18:03:37;23.95;;;4.28;;
64339;SDS011;63709;53.258;-8.814;2023-05-10T18:06:08;24.73;;;3.80;;
64339;SDS011;63709;53.258;-8.814;2023-05-10T18:08:36;29.02;;;4.43;;
64339;SDS011;63709;53.258;-8.814;2023-05-10T18:11:02;21.88;;;3.08;;
64339;SDS011;63709;53.258;-8.814;2023-05-10T18:13:35;31.67;;;4.63;;
64339;SDS011;63709;53.258;-8.814;2023-05-10T18:22:15;21.55;;;3.50;;
64339;SDS011;63709;53.258;-8.814;2023-05-10T18:28:03;21.20;;;3.72;;
64339;SDS011;63709;53.258;-8.814;2023-05-10T18:33:53;13.38;;;2.55;;
64339;SDS011;63709;53.258;-8.814;2023-05-10T18:39:41;18.77;;;3.15;;
64339;SDS011;63709;53.258;-8.814;2023-05-10T18:45:28;16.88;;;3.25;;
64339;SDS011;63709;53.258;-8.814;2023-05-10T18:47:54;24.05;;;3.35;;
64339;SDS011;63709;53.258;-8.814;2023-05-10T18:50:20;11.88;;;3.45;;
64339;SDS011;63709;53.258;-8.814;2023-05-10T18:52:46;15.68;;;2.72;;
64339;SDS011;63709;53.258;-8.814;2023-05-10T18:55:12;13.07;;;2.83;;
64339;SDS011;63709;53.258;-8.814;2023-05-10T18:57:39;14.90;;;2.40;;
64339;SDS011;63709;53.258;-8.814;2023-05-10T19:00:09;14.73;;;3.28;;
64339;SDS011;63709;53.258;-8.814;2023-05-10T19:02:39;19.02;;;3.33;;
64339;SDS011;63709;53.258;-8.814;2023-05-10T19:05:08;10.75;;;2.67;;
64339;SDS011;63709;53.258;-8.814;2023-05-10T19:07:34;19.50;;;2.50;;
64339;SDS011;63709;53.258;-8.814;2023-05-10T19:09:59;19.38;;;3.10;;
64339;SDS011;63709;53.258;-8.814;2023-05-10T19:12:25;11.00;;;2.47;;
64339;SDS011;63709;53.258;-8.814;2023-05-10T19:14:50;14.45;;;2.35;;
64339;SDS011;63709;53.258;-8.814;2023-05-10T19:17:22;13.43;;;2.05;;
64339;SDS011;63709;53.258;-8.814;2023-05-10T19:19:48;13.23;;;2.42;;
64339;SDS011;63709;53.258;-8.814;2023-05-10T19:22:14;13.40;;;2.20;;
64339;SDS011;63709;53.258;-8.814;2023-05-10T19:24:40;10.73;;;1.85;;
64339;SDS011;63709;53.258;-8.814;2023-05-10T19:27:05;9.90;;;2.25;;
64339;SDS011;63709;53.258;-8.814;2023-05-10T19:29:31;14.43;;;2.30;;
64339;SDS011;63709;53.258;-8.814;2023-05-10T19:31:56;9.07;;;2.30;;
64339;SDS011;63709;53.258;-8.814;2023-05-10T19:34:22;11.30;;;2.50;;
64339;SDS011;63709;53.258;-8.814;2023-05-10T19:36:47;18.13;;;2.90;;
64339;SDS011;63709;53.258;-8.814;2023-05-10T19:39:12;9.23;;;2.33;;
64339;SDS011;63709;53.258;-8.814;2023-05-10T19:41:38;14.60;;;3.08;;
64339;SDS011;63709;53.258;-8.814;2023-05-10T19:46:47;17.42;;;2.55;;
64339;SDS011;63709;53.258;-8.814;2023-05-10T19:49:19;14.52;;;2.63;;
64339;SDS011;63709;53.258;-8.814;2023-05-10T19:51:45;9.25;;;2.67;;
64339;SDS011;63709;53.258;-8.814;2023-05-10T19:54:13;13.70;;;2.28;;
64339;SDS011;63709;53.258;-8.814;2023-05-10T19:56:38;14.65;;;2.53;;
64339;SDS011;63709;53.258;-8.814;2023-05-10T19:59:04;12.75;;;2.65;;
64339;SDS011;63709;53.258;-8.814;2023-05-10T20:01:31;8.07;;;1.88;;
64339;SDS011;63709;53.258;-8.814;2023-05-10T20:03:57;12.95;;;2.03;;